North Center, New Jersey
Current Conditions -  °F | °C
As of 3:53 PM on Thursday 18 Dec 2014 (Local Time) from KCDW Reporting Station
Overcast Overcast  
Wind Chill: 30°   Ceiling: 3600
Heat Index: 39°   Visibility: 10mi
Dew Point: 24°   Wind: 17mph
Humidity: 55%   Direction: 310°NW
Pressure: 29.98"   Gusts: 24mph
Location:  40.8099°N, 74.187°W
Report Text: KCDW 182053Z 31015G21KT 10SM OVC036 04/M04 A2998 RMK AO2 SLP157 T00391044 53006
Loading
Personal Weather Stations






























Interactive Weather Map New forecast layout! Learn more

10-Day Weather Forecast

Advertisements
Track Severe Weather on mobile